ESU weather

Mogador Airport
Essaouira, Essaouira Province, Morocco

Public forecast

Using degrees Celsius for public forecast. Weather courtesy of forecast.io.

Current aviation weather report (METAR) for Mogador Airport

Report is more than 6 hours old.

Retrieved 2019/10/19 18:00 UTC (11 hours ago):

GMMI 191800Z 36006KT 8000 NSC 22/15 Q1014 NOSIG

Aviation forecast (TAF) for Mogador Airport

Forecast is more than 12 hours old.

Retrieved 2019/10/19 12:00 UTC (17 hours ago):

TAF GMFK 191100Z 1912/2018 20012KT 9999 FEW026 SCT200 TAF GMMI 191100Z 1912/2018 02012KT 8000 NSC